Overview Statistics Trail Chart Weather Telemetry Raw packets
 

This is the latest recevied weather packets stored in our database for station/object ED1ZAI-14. If no packets are shown the sender has not sent any weather packets the latest 10 day(s).

<< 1 2 3 4 5 >>
Time Temp. Humidity Pressure Rain* Wind** Luminosity Snow
1788577452 19.44° C 34% 818.1 hPa - - - -
1788575652 19.44° C 35% 818.3 hPa - - - -
1788573852 19.44° C 34% 818.2 hPa - - - -
1788572052 20° C 34% 818.3 hPa - - - -
1788570254 20° C 33% 818.3 hPa - - - -
1788568453 20.56° C 33% 818.3 hPa - - - -
1788566653 20.56° C 32% 818.5 hPa - - - -
1788564853 20.56° C 32% 818.7 hPa - - - -
1788563053 20.56° C 31% 818.7 hPa - - - -
1788561259 21.11° C 31% 818.6 hPa - - - -
1788559453 21.11° C 31% 818.6 hPa - - - -
1788557653 21.11° C 32% 818.7 hPa - - - -
1788555853 21.11° C 31% 818.9 hPa - - - -
1788552253 20.56° C 31% 818.7 hPa - - - -
1788550453 21.11° C 32% 818.4 hPa - - - -
1788548653 21.11° C 30% 818.2 hPa - - - -
1788545054 23.33° C 26% 818 hPa - - - -
1788543257 25° C 24% 818.1 hPa - - - -
1788541457 25° C 23% 818 hPa - - - -
1788539660 25.56° C 23% 817.9 hPa - - - -
1788536055 30° C 18% 818 hPa - - - -
1788534255 30° C 18% 818.2 hPa - - - -
1788532457 28.33° C 20% 818.2 hPa - - - -
1788530655 31.11° C 18% 818.4 hPa - - - -
1788528855 30.56° C 18% 818.4 hPa - - - -

* Rain since midnight (hover to see other rain measurements)
** Current wind speed in m/s (hover to see current wind gust speed)